Terminal Aerodrome Forecast
Issued by NWS

Home | Current Version | Previous Version | Text Only | Print | Product List | Glossary On
Versions: 1 2 3 4 5 6 7 8 9 10 11 12 13 14 15 16 17 18 19 20 21 22 23
000
FTUS42 KFFC 282149 AAA
TAFPDK
TAF AMD
KPDK 282149Z 2822/2918 27010KT P6SM VCSH SCT060 BKN080
      TEMPO 2900/2903 VRB15G30KT 5SM SHRA BKN030
     FM290600 26006KT P6SM SCT250
     FM291500 28010KT P6SM SCT040=

USA.gov is the U.S. government's official web portal to all federal, state and local government web resources and services.